メインページ
METAR-TAF:

METAR-TAF

空港 :

エルサルバドル, エルサルバドル

エルサルバドル国際空港

緯度: 13-26N, 経度: 089-03W, 海抜: 25m

現時点の気象観測

当レポートは1時間28分前の04:50(UTC)に作成
北東の風 1kt
気温 26°C
湿度 84%
気圧 1012 hPa
視程10km以上
高度3000ftの雲はほとんどない

METAR: MSLP 280450Z 05001KT 9999 FEW030 26/23 Q1011 A2988 NOSIG

時間: 00:18 (06:18 UTC)

予報

当レポートは2時間53分前の03:25(UTC)に作成
予報は28日の 06時(UTC)から 29日の 06時(UTC)まで有効
変向風 3kt
視程: 8000m
高度4300ftの雲は散在している
28日の 1800時(UTC)から
南/南西の風 10kt
視程10km以上
高度3300ftの雲は散在している

TAF: MSLP 280325Z 2806/2906 VRB03KT 8000 SCT043 TX34/2818Z TN22/2811Z FM281800 21010KT 9999 SCT033

4,000以上の空港の気象観測と天気予報(METAR報とTAF報)

利用可能な観測所は地図上に黄色い丸と赤い丸で示す。

丸の上にカーソルを重ねると観測所名を参照できる。

次にクリックすると気象観測と天気予報を参照できる。

マップの切り替え:黒色「×」印の緑ボタンをクリックして拡大、「-」印の緑ボタンをクリックして縮小、緑色の三角印をクリックして隣りの地図に切り替え


METAR-TAF: